Cordova, AK (99574)

8:15 PM AKDT on April 26, 2017 (GMT -0800)
Cordova - Alpine Falls | | Change Station

Elev 135 ft 60.54 °N, 145.71 °W | Updated 24 seconds ago

Overcast
Overcast
46.8 °F
Feels Like 47 °F
N
0.0
Wind Variable Wind from West
Gusts 0.0 mph

Today
High -- | Low -- °F
--% Chance of Precip.
Yesterday
High -- | Low -- °F
Precip. -- in
Pressure 29.53 in
Visibility 10.0 miles
Clouds Few 2800 ft
Scattered Clouds 6500 ft
Mostly Cloudy 8000 ft
Mostly Cloudy 20000 ft
Windchill 47 °F
Dew Point 39 °F
Humidity 74%
Rainfall 0.00 in
Snow Depth Not available.
5:50 AM 9:32 PM
New Moon, 1% visible
METAR PACV 270353Z 21006KT 10SM FEW028 SCT065 BKN080 BKN200 09/04 A2953 RMK AO2 SLP999 T00890044
Pressure 29.53 in
Visibility 10.0 miles
Clouds Few 2800 ft
Scattered Clouds 6500 ft
Mostly Cloudy 8000 ft
Mostly Cloudy 20000 ft
Windchill 47 °F
Dew Point 39 °F
Humidity 74%
Rainfall 0.00 in
Snow Depth Not available.
5:50 AM 9:32 PM
New Moon, 1% visible
METAR PACV 270353Z 21006KT 10SM FEW028 SCT065 BKN080 BKN200 09/04 A2953 RMK AO2 SLP999 T00890044

Get Severe Weather Alerts

Thanks for signing up!

Be on the lookout for a verification email in your inbox.

You'll start receiving the daily forecast at 8 AM.

×

10-Day Weather Forecast

Almanac

Astronomy

Apr. 26, 2017 Rise Set
Actual Time
Civil Twilight
Nautical Twilight
Astronomical Twilight
Moon
Length of Visible Light
Length of Day
Tomorrow will be .
, % of the Moon is Illuminated

Today's Extremes

State Highs State Lows

Community

WunderPhotos

WunderBlog® & News

Nearby

Air Quality

  Air Quality AQ Index Pollutant
Not available.

Snow Depth

Station Depth Elevation

Earthquake Activity

City Distance Mag. Time & Date
Minimum magnitude displayed is 2.5.

Coastal Water Temperatures

Place Temperature

Stations

Nearby Weather Stations

Station Location Temp. Windchill Dew Point Humidity Wind Precip. Elev Updated Type
                   

Watches & Warnings

There are currently no watches in effect.